Hang Nadim, Indonesia

1:55 AM WIB on October 31, 2014 (GMT +0700)
Ocean Park | Change Station
CLOSE
Current Station
Personal Weather Station
Location: Singapore, Siglap
Elevation: 66 ft
Nearby Weather Stations

Elev 66 ft 1.31 °N, 103.92 °E | Updated 2 minutes ago

Mostly Cloudy
Mostly Cloudy
81.9 °F
Feels Like 91 °F
N
0.0
Wind Variable Wind from NE
Gusts 0.0 mph

Today
High -- | Low -- °F
--% Chance of Precip.
Yesterday
High -- | Low -- °F
Precip. -- in
5:44 AM 5:49 PM
Waxing Crescent, 46% visible
Pressure 29.80 in
Visibility 4.3 miles
Clouds Few 1800 ft
Mostly Cloudy 30000 ft
Heat Index 91 °F
Dew Point 79 °F
Humidity 91%
Rainfall 0.00 in
Snow Depth Not available.
UV 0 out of 12
Pollen Not available.
Air Quality Not available.
Flu Activity Not available.
METAR WSSS 301830Z VRB02KT 7000 FEW018 BKN300 26/25 Q1009 NOSIG

More Conditions Fewer Conditions

Pressure 29.80 in
Visibility 4.3 miles
Clouds Few 1800 ft
Mostly Cloudy 30000 ft
Heat Index 91 °F
Dew Point 79 °F
Humidity 91%
Rainfall 0.00 in
Snow Depth Not available.
UV 0 out of 12
Pollen Not available.
Air Quality Not available.
Flu Activity Not available.
METAR WSSS 301830Z VRB02KT 7000 FEW018 BKN300 26/25 Q1009 NOSIG

More Conditions Fewer Conditions

10-Day Weather Forecast

Almanac

Astronomy

Oct. 31, 2014 Rise Set
Actual Time
Civil Twilight
Nautical Twilight
Astronomical Twilight
Moon
Length of Visible Light
Length of Day
Tomorrow will be .
, % of the Moon is Illuminated

Today's Extremes

Country Highs Country Lows

Community

WunderPhotos

Upload Photos

1,766,425 photos uploaded!

WunderBlogs® & News

Nearby

Air Quality

  Air Quality AQ Index Pollutant
Not available.

Snow Depth

Station Depth Elevation

Earthquake Activity

City Distance Mag. Time & Date
Minimum magnitude displayed is 2.5.

Coastal Water Temperatures

Place Temperature

Nearby Weather Stations